Forside
METAR-TAF:

METAR-TAF

Lufthavne :

Waukegan Regional Airport

Waukegan, Illinois, USA

Breddekreds: 42-25N, længdekreds: 087-52W, højde: 222 m

Aktuelle vejr

Denne rapport blev lavet for 1 time og 8 minutter siden, kl. 01:55 UTC
Vind 3 kt fra øst
Temperatur 18°C
Fugtighed 83%
Tryk 1013 hPa
Sigt: 12.9 km
skyfri

METAR: KUGN 250155Z AUTO 08003KT 8SM CLR 18/15 A2990 RMK AO2 SLP116 T01830150

Tid: 22:03 (03:03 UTC)


TAF: fraværende

Vejrobservationer og prognoser fra mere end 4000 lufthavne (METAR og TAF).

De gule og røde prikker repræsenterer de meteorologiske stationer.

Flyt musen over at se navnet på stationen.

Så klik over at se vejr observationer og prognoser.

At skifte det kort: Klik på de grønne knapper med et sort kors for at zoome ind; på den grønne knap med en bindestreg for at zoome ud; eller på de grønne pile for tilstødende kort.


METAR-TAF: